createdAt,value
2022-10-11T04:11:45.464Z,8.87
2022-10-11T04:14:11.571Z,8.87
2022-10-11T04:16:40.650Z,8.91
2022-10-11T04:19:06.812Z,8.94
2022-10-11T04:21:32.929Z,8.97
2022-10-11T04:23:59.097Z,8.99
2022-10-11T04:26:26.542Z,9.03
2022-10-11T04:28:53.101Z,9.09
2022-10-11T04:31:19.466Z,9.14
2022-10-11T04:33:45.729Z,9.17
2022-10-11T04:36:11.883Z,9.18
2022-10-11T04:38:37.992Z,9.15
2022-10-11T04:41:09.231Z,9.12
2022-10-11T04:43:35.974Z,9.13
2022-10-11T04:46:02.806Z,9.12
2022-10-11T04:48:29.263Z,9.11
2022-10-11T04:50:55.670Z,9.08
2022-10-11T04:53:21.883Z,9.04
2022-10-11T04:56:06.838Z,9.01
2022-10-11T04:58:34.228Z,8.98
2022-10-11T05:01:00.906Z,8.96
2022-10-11T05:03:27.551Z,8.93
2022-10-11T05:05:53.947Z,8.89
2022-10-11T05:08:22.434Z,8.87
2022-10-11T05:11:00.355Z,8.84
2022-10-11T05:13:28.077Z,8.80
2022-10-11T05:15:54.521Z,8.78
2022-10-11T05:18:21.552Z,8.78
2022-10-11T05:20:48.026Z,8.80
2022-10-11T05:23:14.788Z,8.82
2022-10-11T05:25:41.365Z,8.84
2022-10-11T05:28:07.646Z,8.84
2022-10-11T05:30:33.810Z,8.88
2022-10-11T05:33:00.093Z,8.94
2022-10-11T05:35:26.213Z,9.00
2022-10-11T05:37:52.410Z,9.04
2022-10-11T05:40:18.599Z,9.06
2022-10-11T05:42:44.727Z,9.11
2022-10-11T05:45:10.887Z,9.15
2022-10-11T05:47:36.991Z,9.20
2022-10-11T05:50:03.254Z,9.26
2022-10-11T05:52:34.105Z,9.31
2022-10-11T05:55:00.405Z,9.38
2022-10-11T05:57:26.622Z,9.44
2022-10-11T05:59:52.754Z,9.50
2022-10-11T06:02:18.928Z,9.57
2022-10-11T06:04:45.359Z,9.65
2022-10-11T06:07:11.481Z,9.70
2022-10-11T06:09:38.854Z,9.74
2022-10-11T06:12:05.580Z,9.75
2022-10-11T06:14:31.724Z,9.74
2022-10-11T06:16:57.885Z,9.69
2022-10-11T06:19:24.142Z,9.64
2022-10-11T06:21:50.907Z,9.58
2022-10-11T06:24:18.056Z,9.52
2022-10-11T06:26:44.159Z,9.46
2022-10-11T06:29:10.667Z,9.42
2022-10-11T06:31:36.886Z,9.39
2022-10-11T06:34:03.049Z,9.38
2022-10-11T06:36:29.248Z,9.38
2022-10-11T06:38:55.442Z,9.38
2022-10-11T06:41:26.693Z,9.41
2022-10-11T06:43:53.236Z,9.44
2022-10-11T06:46:21.189Z,9.49
2022-10-11T06:48:48.503Z,9.53
2022-10-11T06:51:17.443Z,9.55
2022-10-11T06:53:48.553Z,9.56
2022-10-11T06:56:14.712Z,9.56
2022-10-11T06:58:40.905Z,9.58
2022-10-11T07:01:10.828Z,9.61
2022-10-11T07:03:37.685Z,9.63
2022-10-11T07:06:16.948Z,9.69
2022-10-11T07:08:43.236Z,9.75
2022-10-11T07:11:15.517Z,9.82
2022-10-11T07:13:42.060Z,9.89
2022-10-11T07:16:11.435Z,9.94
2022-10-11T07:18:38.435Z,10.00
2022-10-11T07:21:07.030Z,10.01
2022-10-11T07:23:33.919Z,10.05
2022-10-11T07:26:00.294Z,10.10
2022-10-11T07:28:28.196Z,10.17
2022-10-11T07:30:54.487Z,10.28
2022-10-11T07:33:20.585Z,10.34
2022-10-11T07:35:48.813Z,10.37
2022-10-11T07:38:15.740Z,10.41
2022-10-11T07:40:43.760Z,10.45
2022-10-11T07:43:11.559Z,10.54
2022-10-11T07:45:38.814Z,10.65
2022-10-11T07:48:05.451Z,10.74
2022-10-11T07:50:32.489Z,10.85
2022-10-11T07:52:58.732Z,10.96
2022-10-11T07:55:26.695Z,11.05
2022-10-11T07:57:56.292Z,11.10
2022-10-11T08:00:22.845Z,11.19
2022-10-11T08:02:49.277Z,11.34
2022-10-11T08:05:15.980Z,11.47
2022-10-11T08:07:42.219Z,11.59
2022-10-11T08:10:09.329Z,11.67
2022-10-11T08:12:35.495Z,11.73
2022-10-11T08:15:01.725Z,11.80
2022-10-11T08:17:29.789Z,11.79
2022-10-11T08:19:57.354Z,11.75
2022-10-11T08:22:23.435Z,11.71
2022-10-11T08:24:49.534Z,11.75
2022-10-11T08:27:15.676Z,11.81
2022-10-11T08:29:41.839Z,11.88
2022-10-11T08:32:11.323Z,11.93
2022-10-11T08:34:40.022Z,11.92
2022-10-11T08:37:06.162Z,11.96
2022-10-11T08:39:32.318Z,12.01
2022-10-11T08:42:04.291Z,12.01
2022-10-11T08:45:09.902Z,12.04
2022-10-11T08:47:39.704Z,12.04
2022-10-11T08:50:07.657Z,12.06
2022-10-11T08:52:36.800Z,12.09
2022-10-11T08:55:41.232Z,12.12
2022-10-11T08:58:11.690Z,12.12
2022-10-11T09:00:40.091Z,12.09
2022-10-11T09:03:38.241Z,12.07
2022-10-11T09:06:36.619Z,12.01
2022-10-11T09:09:34.736Z,11.96
2022-10-11T09:12:14.246Z,11.94
2022-10-11T09:14:50.315Z,11.97
2022-10-11T09:17:44.610Z,11.97
2022-10-11T09:20:26.693Z,11.99
2022-10-11T09:23:23.802Z,11.97
2022-10-11T09:26:06.916Z,12.00
2022-10-11T09:29:01.246Z,11.99
2022-10-11T09:31:28.919Z,12.00
2022-10-11T09:33:55.238Z,12.01
2022-10-11T09:36:44.111Z,12.07
2022-10-11T09:39:33.185Z,12.12
2022-10-11T09:42:00.985Z,12.13
2022-10-11T09:44:29.596Z,12.19
2022-10-11T09:46:56.832Z,12.30
2022-10-11T09:49:57.150Z,12.41
2022-10-11T09:52:24.921Z,12.52
2022-10-11T09:54:57.316Z,12.57
2022-10-11T09:57:25.671Z,12.63
2022-10-11T10:00:02.135Z,12.75
2022-10-11T10:02:46.712Z,12.87
2022-10-11T10:05:15.081Z,13.02
2022-10-11T10:07:57.381Z,13.10
2022-10-11T10:10:26.773Z,13.13
2022-10-11T10:13:00.084Z,13.14
2022-10-11T10:15:31.065Z,13.09
2022-10-11T10:18:02.883Z,13.10
2022-10-11T10:20:34.788Z,13.10
2022-10-11T10:23:08.909Z,13.14
2022-10-11T10:25:43.045Z,13.09
2022-10-11T10:28:26.442Z,13.06
2022-10-11T10:30:57.719Z,13.08
2022-10-11T10:33:29.178Z,13.03
2022-10-11T10:36:16.801Z,12.94
2022-10-11T10:38:52.340Z,12.91
2022-10-11T10:41:19.007Z,12.90
2022-10-11T10:44:01.307Z,12.95
2022-10-11T10:47:00.652Z,13.05
2022-10-11T10:49:54.084Z,13.22
2022-10-11T10:52:44.268Z,13.35
2022-10-11T10:55:42.465Z,13.46
2022-10-11T10:58:27.329Z,13.63
2022-10-11T11:01:01.569Z,13.81
2022-10-11T11:03:45.592Z,13.88
2022-10-11T11:06:22.919Z,13.98
2022-10-11T11:08:57.359Z,14.09
2022-10-11T11:11:48.668Z,14.18
2022-10-11T11:14:30.820Z,14.24
2022-10-11T11:17:11.482Z,14.24
2022-10-11T11:19:57.760Z,14.22
2022-10-11T11:22:30.503Z,14.25
2022-10-11T11:25:30.917Z,14.25
2022-10-11T11:28:22.604Z,14.29
2022-10-11T11:31:05.833Z,14.33
2022-10-11T11:33:49.139Z,14.49
2022-10-11T11:36:28.382Z,14.60
2022-10-11T11:39:01.897Z,14.64
2022-10-11T11:41:42.719Z,14.69
2022-10-11T11:44:16.264Z,14.80
2022-10-11T11:46:58.309Z,14.79
2022-10-11T11:49:31.885Z,14.69
2022-10-11T11:51:59.859Z,14.67
2022-10-11T11:54:44.122Z,14.66
2022-10-11T11:57:43.016Z,14.74
2022-10-11T12:00:12.718Z,14.75
2022-10-11T12:02:47.647Z,14.79
2022-10-11T12:05:17.826Z,14.86
2022-10-11T12:08:17.713Z,14.83
2022-10-11T12:10:49.732Z,14.72
2022-10-11T12:13:20.831Z,14.55
2022-10-11T12:16:02.950Z,14.50
2022-10-11T12:18:30.909Z,14.63
2022-10-11T12:21:17.764Z,14.73
2022-10-11T12:23:49.579Z,14.83
2022-10-11T12:26:36.176Z,14.97
2022-10-11T12:29:18.605Z,15.03
2022-10-11T12:31:48.755Z,14.87
2022-10-11T12:34:33.747Z,14.66
2022-10-11T12:37:22.217Z,14.43
2022-10-11T12:39:59.535Z,14.48
2022-10-11T12:42:28.343Z,14.61
2022-10-11T12:48:56.408Z,14.89
2022-10-11T12:51:33.240Z,15.11
2022-10-11T12:54:31.002Z,15.44
2022-10-11T12:57:00.704Z,16.39
2022-10-11T12:59:30.343Z,17.31
2022-10-11T13:01:59.130Z,17.45
2022-10-11T13:04:29.294Z,17.13
2022-10-11T13:07:06.598Z,16.79
2022-10-11T13:09:41.585Z,16.55
2022-10-11T13:12:17.473Z,16.93
2022-10-11T13:14:47.593Z,17.55
2022-10-11T13:17:24.945Z,17.97
2022-10-11T13:20:19.028Z,18.38
2022-10-11T13:22:48.980Z,18.99
2022-10-11T13:25:18.895Z,19.18
2022-10-11T13:27:47.470Z,18.65
2022-10-11T13:30:20.880Z,18.54
2022-10-11T13:32:47.590Z,18.45
2022-10-11T13:35:24.828Z,18.33
2022-10-11T13:37:51.203Z,18.13
2022-10-11T13:40:20.247Z,18.28
2022-10-11T13:42:48.553Z,18.38
2022-10-11T13:45:19.549Z,18.18
2022-10-11T13:47:49.071Z,18.17
2022-10-11T13:50:15.240Z,18.58
2022-10-11T13:52:59.164Z,19.45
2022-10-11T13:55:41.357Z,20.52
2022-10-11T13:58:19.264Z,21.08
2022-10-11T14:01:16.055Z,20.98
2022-10-11T14:03:46.056Z,22.09
2022-10-11T14:06:12.701Z,22.82
2022-10-11T14:08:46.440Z,23.72
2022-10-11T14:11:13.644Z,24.02
2022-10-11T14:13:49.247Z,23.21
2022-10-11T14:16:15.355Z,22.48
2022-10-11T14:18:49.508Z,21.63
2022-10-11T14:21:18.407Z,20.53
2022-10-11T14:23:46.197Z,19.72
2022-10-11T14:26:18.566Z,19.20
2022-10-11T14:28:50.443Z,19.20
2022-10-11T14:31:16.894Z,19.59
2022-10-11T14:33:43.637Z,19.18
2022-10-11T14:36:09.769Z,18.97
2022-10-11T14:38:36.080Z,19.01
2022-10-11T14:41:02.298Z,18.46
2022-10-11T14:43:28.460Z,17.73
2022-10-11T14:45:54.653Z,17.77
2022-10-11T14:48:43.045Z,18.23
2022-10-11T14:51:11.184Z,18.22
2022-10-11T14:53:41.255Z,17.74
2022-10-11T14:56:07.760Z,16.98
2022-10-11T14:58:34.079Z,16.41
2022-10-11T15:01:00.181Z,15.93
2022-10-11T15:03:26.342Z,15.53
2022-10-11T15:05:52.652Z,15.28
2022-10-11T15:08:19.161Z,15.09
2022-10-11T15:10:45.286Z,14.92
2022-10-11T15:13:11.430Z,14.68
2022-10-11T15:15:40.180Z,14.42
2022-10-11T15:18:10.153Z,14.21
2022-10-11T15:20:38.912Z,13.95
2022-10-11T15:23:08.917Z,13.73
2022-10-11T15:25:37.375Z,13.53
2022-10-11T15:28:04.597Z,13.34
2022-10-11T15:30:38.515Z,13.16
2022-10-11T15:33:07.805Z,12.97
2022-10-11T15:35:34.105Z,12.82
2022-10-11T15:38:00.325Z,12.68
2022-10-11T15:40:30.963Z,12.50
2022-10-11T15:42:57.340Z,12.32
2022-10-11T15:45:23.777Z,12.15
2022-10-11T15:47:50.714Z,11.97
2022-10-11T15:50:33.262Z,11.81
2022-10-11T15:53:02.096Z,11.61
2022-10-11T15:55:29.316Z,11.47
2022-10-11T15:57:56.469Z,11.35
2022-10-11T16:00:23.722Z,11.22
2022-10-11T16:02:51.591Z,11.09
2022-10-11T16:05:23.552Z,10.97
2022-10-11T16:07:51.090Z,10.85
2022-10-11T16:10:17.595Z,10.73
2022-10-11T16:12:43.793Z,10.62
2022-10-11T16:15:10.323Z,10.50
2022-10-11T16:17:37.465Z,10.40
2022-10-11T16:20:06.037Z,10.30
2022-10-11T16:22:33.493Z,10.21
2022-10-11T16:25:00.046Z,10.12
2022-10-11T16:27:26.552Z,10.04
2022-10-11T16:29:53.109Z,9.97
2022-10-11T16:32:20.328Z,9.90
2022-10-11T16:34:47.020Z,9.83
2022-10-11T16:37:13.646Z,9.76
2022-10-11T16:39:39.799Z,9.71
2022-10-11T16:42:06.062Z,9.63
2022-10-11T16:44:32.432Z,9.55
2022-10-11T16:46:59.470Z,9.46
2022-10-11T16:49:27.613Z,9.36
2022-10-11T16:51:56.178Z,9.28
2022-10-11T16:54:22.346Z,9.19
2022-10-11T16:56:49.305Z,9.13
2022-10-11T16:59:16.633Z,9.07
2022-10-11T17:01:44.334Z,9.02
2022-10-11T17:04:11.556Z,8.97
2022-10-11T17:06:39.455Z,8.93
2022-10-11T17:09:06.962Z,8.89
2022-10-11T17:11:33.401Z,8.84
2022-10-11T17:14:00.480Z,8.80
2022-10-11T17:16:27.030Z,8.76
2022-10-11T17:18:53.203Z,8.72
2022-10-11T17:21:21.248Z,8.67
2022-10-11T17:23:48.383Z,8.63
2022-10-11T17:26:19.500Z,8.60
2022-10-11T17:28:45.883Z,8.58
2022-10-11T17:31:12.395Z,8.57
2022-10-11T17:33:38.558Z,8.56
2022-10-11T17:36:23.425Z,8.56
2022-10-11T17:38:51.038Z,8.56
2022-10-11T17:41:17.666Z,8.59
2022-10-11T17:43:43.923Z,8.59
2022-10-11T17:46:12.640Z,8.59
2022-10-11T17:48:39.270Z,8.56
2022-10-11T17:51:10.764Z,8.52
2022-10-11T17:53:37.116Z,8.49
2022-10-11T17:56:09.072Z,8.43
2022-10-11T17:58:35.822Z,8.38
2022-10-11T18:01:04.948Z,8.34
2022-10-11T18:03:31.797Z,8.30
2022-10-11T18:05:58.286Z,8.27
2022-10-11T18:08:24.650Z,8.24
2022-10-11T18:10:50.812Z,8.21
2022-10-11T18:13:17.138Z,8.20
2022-10-11T18:15:43.289Z,8.18
2022-10-11T18:18:11.000Z,8.16
2022-10-11T18:20:37.524Z,8.14
2022-10-11T18:23:03.649Z,8.12
2022-10-11T18:25:32.654Z,8.09
2022-10-11T18:27:58.787Z,8.07
2022-10-11T18:30:25.120Z,8.06
2022-10-11T18:32:51.220Z,8.05
2022-10-11T18:35:17.369Z,8.05
2022-10-11T18:37:43.498Z,8.05
2022-10-11T18:40:09.814Z,8.05
2022-10-11T18:42:35.979Z,8.05
2022-10-11T18:45:02.268Z,8.06
2022-10-11T18:47:28.469Z,8.06
2022-10-11T18:49:54.652Z,8.04
2022-10-11T18:52:20.799Z,8.01
2022-10-11T18:54:47.058Z,7.97
2022-10-11T18:57:13.185Z,7.93
2022-10-11T18:59:39.303Z,7.88
2022-10-11T19:02:05.744Z,7.83
2022-10-11T19:04:33.559Z,7.79
2022-10-11T19:06:59.771Z,7.75
2022-10-11T19:09:27.554Z,7.71
2022-10-11T19:11:55.407Z,7.68
2022-10-11T19:14:30.795Z,7.63
2022-10-11T19:16:57.606Z,7.60
2022-10-11T19:19:28.971Z,7.60
2022-10-11T19:21:55.658Z,7.58
2022-10-11T19:24:25.010Z,7.60
2022-10-11T19:26:52.387Z,7.61
2022-10-11T19:29:21.721Z,7.61
2022-10-11T19:31:50.498Z,7.61
2022-10-11T19:34:18.174Z,7.60
2022-10-11T19:36:44.691Z,7.60
2022-10-11T19:39:15.649Z,7.58
2022-10-11T19:41:43.359Z,7.55
2022-10-11T19:44:11.117Z,7.52
2022-10-11T19:46:51.025Z,7.47
2022-10-11T19:49:21.708Z,7.41
2022-10-11T19:51:47.893Z,7.37
2022-10-11T19:54:14.754Z,7.32
2022-10-11T19:56:41.805Z,7.28
2022-10-11T19:59:10.376Z,7.25
2022-10-11T20:01:37.043Z,7.25
2022-10-11T20:04:05.801Z,7.25
2022-10-11T20:06:38.115Z,7.26
2022-10-11T20:09:28.018Z,7.26
2022-10-11T20:11:53.204Z,7.28
2022-10-11T20:14:19.762Z,7.27
2022-10-11T20:16:49.202Z,7.25
2022-10-11T20:19:15.350Z,7.21
2022-10-11T20:21:41.531Z,7.18
2022-10-11T20:24:07.848Z,7.17
2022-10-11T20:26:34.261Z,7.14
2022-10-11T20:29:00.396Z,7.12
2022-10-11T20:31:32.577Z,7.09
2022-10-11T20:34:02.677Z,7.06
2022-10-11T20:36:29.868Z,7.03
2022-10-11T20:38:57.503Z,7.01
2022-10-11T20:41:26.706Z,7.01
2022-10-11T20:43:56.026Z,7.01
2022-10-11T20:46:24.676Z,7.02
2022-10-11T20:49:01.555Z,7.04
2022-10-11T20:51:29.897Z,7.05
2022-10-11T20:53:57.282Z,7.06
2022-10-11T20:56:23.483Z,7.07
2022-10-11T20:58:54.226Z,7.08
2022-10-11T21:01:23.206Z,7.07
2022-10-11T21:03:49.695Z,7.05
2022-10-11T21:06:16.964Z,7.02
2022-10-11T21:08:43.954Z,6.99
2022-10-11T21:11:10.889Z,6.96
2022-10-11T21:13:37.380Z,6.92
2022-10-11T21:16:19.541Z,6.89
2022-10-11T21:18:51.124Z,6.87
2022-10-11T21:21:17.742Z,6.86
2022-10-11T21:23:43.933Z,6.86
2022-10-11T21:26:12.913Z,6.87
2022-10-11T21:28:39.957Z,6.90
2022-10-11T21:31:08.901Z,6.90
2022-10-11T21:33:36.000Z,6.90
2022-10-11T21:36:04.738Z,6.89
2022-10-11T21:38:31.195Z,6.86
2022-10-11T21:40:57.402Z,6.84
2022-10-11T21:43:24.184Z,6.80
2022-10-11T21:45:50.578Z,6.77
2022-10-11T21:48:17.152Z,6.73
2022-10-11T21:50:43.259Z,6.69
2022-10-11T21:53:09.365Z,6.63
2022-10-11T21:55:35.552Z,6.59
2022-10-11T21:58:01.815Z,6.56
2022-10-11T22:00:27.956Z,6.54
2022-10-11T22:02:54.221Z,6.52
2022-10-11T22:05:20.430Z,6.50
2022-10-11T22:07:46.521Z,6.50
2022-10-11T22:10:12.663Z,6.53
2022-10-11T22:12:38.813Z,6.54
2022-10-11T22:15:05.868Z,6.56
2022-10-11T22:17:32.020Z,6.56
2022-10-11T22:19:58.227Z,6.53
2022-10-11T22:22:24.374Z,6.51
2022-10-11T22:24:50.519Z,6.46
2022-10-11T22:27:16.611Z,6.43
2022-10-11T22:29:42.786Z,6.41
2022-10-11T22:32:08.951Z,6.38
2022-10-11T22:34:35.123Z,6.38
2022-10-11T22:37:01.278Z,6.41
2022-10-11T22:39:28.844Z,6.44
2022-10-11T22:41:54.951Z,6.49
2022-10-11T22:44:21.346Z,6.56
2022-10-11T22:46:47.514Z,6.60
2022-10-11T22:49:13.638Z,6.63
2022-10-11T22:51:39.787Z,6.66
2022-10-11T22:54:05.947Z,6.68
2022-10-11T22:56:32.063Z,6.68
2022-10-11T22:58:58.728Z,6.61
2022-10-11T23:01:24.840Z,6.56
2022-10-11T23:03:51.074Z,6.52
2022-10-11T23:06:17.532Z,6.53
2022-10-11T23:08:43.765Z,6.50
2022-10-11T23:14:40.632Z,6.39
2022-10-11T23:17:06.939Z,6.39
2022-10-11T23:19:33.073Z,6.41
2022-10-11T23:21:59.201Z,6.41
2022-10-11T23:24:25.360Z,6.40
2022-10-11T23:26:51.471Z,6.39
2022-10-11T23:29:17.592Z,6.40
2022-10-11T23:31:45.554Z,6.41
2022-10-11T23:34:13.285Z,6.43
2022-10-11T23:36:39.407Z,6.42
2022-10-11T23:39:05.537Z,6.38
2022-10-11T23:41:31.673Z,6.33
2022-10-11T23:43:58.159Z,6.26
2022-10-11T23:46:24.525Z,6.21
2022-10-11T23:48:50.786Z,6.17
2022-10-11T23:51:16.950Z,6.12
2022-10-11T23:53:43.107Z,6.08
2022-10-11T23:56:11.021Z,6.06
2022-10-11T23:58:37.442Z,6.06
